Time;durP1;ratioP1;P1;durP2;ratioP2;P2;SDS_P1;SDS_P2;PMS_P1;PMS_P2;Temp;Humidity;BMP_temperature;BMP_pressure;BME280_temperature;BME280_humidity;BME280_pressure;Samples;Min_cycle;Max_cycle;Signal;HPM_P1;HPM_P2
2022/06/09 00:02:29;;;;;;;11.30;10.20;;;;;;99842.59;;;;107806;1276;22526;-37
2022/06/09 00:04:57;;;;;;;11.20;10.30;;;;;;99838.80;;;;107819;1276;22544;-37
2022/06/09 00:07:25;;;;;;;10.90;10.00;;;;;;99836.23;;;;107808;1276;22470;-37
2022/06/09 00:09:52;;;;;;;11.70;10.70;;;;;;99837.87;;;;107820;1276;22529;-37
2022/06/09 00:12:20;;;;;;;10.90;9.90;;;;;;99840.70;;;;107828;1277;22601;-37
2022/06/09 00:14:47;;;;;;;11.30;10.30;;;;;;99842.67;;;;107813;1276;24234;-37
2022/06/09 00:17:15;;;;;;;10.90;9.80;;;;;;99843.92;;;;107822;1276;22675;-37
2022/06/09 00:19:42;;;;;;;11.60;10.60;;;;;;99837.39;;;;107815;1276;22487;-37
2022/06/09 00:22:09;;;;;;;10.90;10.00;;;;;;99836.20;;;;107816;1276;22548;-37
2022/06/09 00:24:37;;;;;;;11.50;10.50;;;;;;99838.33;;;;107827;1276;25355;-37
2022/06/09 00:27:04;;;;;;;10.40;9.40;;;;;;99839.60;;;;107812;1276;22690;-37
2022/06/09 00:29:32;;;;;;;10.80;9.90;;;;;;99839.45;;;;107803;1276;22544;-37
2022/06/09 00:31:59;;;;;;;11.10;10.10;;;;;;99843.30;;;;107816;1277;22687;-37
2022/06/09 00:34:26;;;;;;;10.70;9.80;;;;;;99845.41;;;;107818;1276;22556;-37
2022/06/09 00:36:54;;;;;;;10.60;9.60;;;;;;99847.79;;;;107792;1276;24370;-37
2022/06/09 00:39:21;;;;;;;11.10;10.10;;;;;;99849.69;;;;107799;1276;22600;-37
2022/06/09 00:41:49;;;;;;;10.30;9.40;;;;;;99848.65;;;;107791;1276;22544;-37
2022/06/09 00:44:16;;;;;;;10.50;9.50;;;;;;99848.64;;;;107801;1276;22837;-37
2022/06/09 00:46:44;;;;;;;10.70;9.70;;;;;;99849.97;;;;107779;1276;23078;-37
2022/06/09 00:49:11;;;;;;;10.60;9.50;;;;;;99854.00;;;;107788;1276;22497;-37
2022/06/09 00:51:38;;;;;;;10.90;10.00;;;;;;99856.58;;;;107792;1276;24229;-37
2022/06/09 00:54:06;;;;;;;10.70;9.70;;;;;;99855.20;;;;107781;1276;22536;-37
2022/06/09 00:56:33;;;;;;;10.60;9.70;;;;;;99856.27;;;;107796;1276;22552;-37
2022/06/09 00:59:01;;;;;;;10.80;9.90;;;;;;99856.75;;;;107781;1276;22706;-37
2022/06/09 01:01:28;;;;;;;10.80;9.90;;;;;;99860.20;;;;107811;1276;22532;-37
2022/06/09 01:03:55;;;;;;;10.50;9.60;;;;;;99862.98;;;;107809;1276;23347;-37
2022/06/09 01:06:23;;;;;;;10.60;9.60;;;;;;99865.04;;;;107817;1276;22513;-37
2022/06/09 01:08:50;;;;;;;10.20;9.30;;;;;;99870.39;;;;107806;1276;23871;-37
2022/06/09 01:11:17;;;;;;;10.70;9.70;;;;;;99872.90;;;;107818;1276;22559;-37
2022/06/09 01:13:45;;;;;;;10.70;9.80;;;;;;99875.33;;;;107806;1276;22533;-37
2022/06/09 01:16:12;;;;;;;10.50;9.60;;;;;;99875.52;;;;107804;1276;23852;-37
2022/06/09 01:18:39;;;;;;;10.50;9.50;;;;;;99873.44;;;;107809;1276;22561;-37
2022/06/09 01:21:07;;;;;;;10.80;9.80;;;;;;99872.94;;;;107791;1275;23070;-37
2022/06/09 01:23:34;;;;;;;10.30;9.40;;;;;;99873.48;;;;107807;1276;22660;-38
2022/06/09 01:26:02;;;;;;;10.50;9.60;;;;;;99873.75;;;;107796;1276;23160;-38
2022/06/09 01:28:29;;;;;;;10.30;9.30;;;;;;99872.05;;;;107794;1276;22565;-38
2022/06/09 01:30:56;;;;;;;11.00;9.90;;;;;;99874.77;;;;107804;1276;22528;-38
2022/06/09 01:33:23;;;;;;;10.60;9.60;;;;;;99874.60;;;;107787;1276;22867;-38
2022/06/09 01:35:51;;;;;;;10.50;9.50;;;;;;99876.20;;;;107800;1276;22960;-38
2022/06/09 01:38:18;;;;;;;10.20;9.30;;;;;;99877.48;;;;107786;1276;22643;-37
2022/06/09 01:40:46;;;;;;;10.20;9.20;;;;;;99875.50;;;;107805;1276;22688;-37
2022/06/09 01:43:13;;;;;;;9.70;8.80;;;;;;99872.59;;;;107817;1276;23191;-38
2022/06/09 01:45:41;;;;;;;10.20;9.30;;;;;;99867.70;;;;107803;1276;25379;-38
2022/06/09 01:48:08;;;;;;;10.00;9.10;;;;;;99867.64;;;;107797;1276;22633;-37
2022/06/09 01:50:36;;;;;;;10.50;9.60;;;;;;99868.20;;;;107791;1276;22526;-37
2022/06/09 01:53:04;;;;;;;10.30;9.40;;;;;;99864.19;;;;107809;1276;23851;-37
2022/06/09 01:55:31;;;;;;;9.40;8.60;;;;;;99857.11;;;;107805;1276;23866;-37
2022/06/09 01:57:59;;;;;;;10.60;9.60;;;;;;99854.91;;;;107810;1276;22624;-37
2022/06/09 02:00:26;;;;;;;10.40;9.50;;;;;;99850.66;;;;107813;1276;22535;-37
2022/06/09 02:02:54;;;;;;;9.90;9.00;;;;;;99845.39;;;;107814;1276;23189;-38
2022/06/09 02:05:21;;;;;;;10.20;9.30;;;;;;99840.43;;;;107791;1276;23227;-37
2022/06/09 02:07:48;;;;;;;10.70;9.70;;;;;;99835.45;;;;107798;1276;22569;-37
2022/06/09 02:10:16;;;;;;;10.00;9.10;;;;;;99832.89;;;;107796;1276;22737;-38
2022/06/09 02:12:43;;;;;;;10.00;9.10;;;;;;99831.91;;;;107803;1276;23180;-38
2022/06/09 02:15:11;;;;;;;10.00;9.10;;;;;;99831.93;;;;107800;1276;22657;-38
2022/06/09 02:17:38;;;;;;;10.40;9.50;;;;;;99833.24;;;;107802;1276;22566;-37
2022/06/09 02:20:06;;;;;;;9.70;8.80;;;;;;99833.62;;;;107800;1276;23914;-37
2022/06/09 02:22:33;;;;;;;10.30;9.40;;;;;;99831.98;;;;107816;1276;22551;-37
2022/06/09 02:25:01;;;;;;;10.00;9.10;;;;;;99827.19;;;;107808;1276;24371;-37
2022/06/09 02:27:28;;;;;;;9.60;8.70;;;;;;99822.35;;;;107787;1276;22691;-37
2022/06/09 02:29:55;;;;;;;10.40;9.40;;;;;;99819.30;;;;107795;1276;22556;-37
2022/06/09 02:32:23;;;;;;;10.30;9.30;;;;;;99818.48;;;;107837;1276;22561;-37
2022/06/09 02:34:51;;;;;;;10.60;9.70;;;;;;99821.48;;;;107796;1276;23875;-37
2022/06/09 02:37:18;;;;;;;9.90;9.00;;;;;;99824.52;;;;107819;1276;22634;-37
2022/06/09 02:39:46;;;;;;;10.10;9.20;;;;;;99825.41;;;;107816;1276;22568;-37
2022/06/09 02:42:13;;;;;;;10.00;9.00;;;;;;99825.10;;;;107791;1276;24461;-37
2022/06/09 02:44:40;;;;;;;10.70;9.30;;;;;;99828.98;;;;107798;1276;22563;-37
2022/06/09 02:47:08;;;;;;;10.20;9.30;;;;;;99838.08;;;;107792;1276;25347;-37
2022/06/09 02:49:35;;;;;;;10.60;9.60;;;;;;99841.02;;;;107777;1276;23156;-38
2022/06/09 02:52:03;;;;;;;10.10;9.20;;;;;;99843.84;;;;107801;1276;22958;-38
2022/06/09 02:54:30;;;;;;;10.30;9.40;;;;;;99840.38;;;;107796;1276;22564;-38
2022/06/09 02:56:58;;;;;;;10.10;9.20;;;;;;99834.79;;;;107807;1276;22558;-38
2022/06/09 02:59:25;;;;;;;10.70;9.60;;;;;;99827.80;;;;107786;1276;22575;-38
2022/06/09 03:01:53;;;;;;;10.40;9.50;;;;;;99821.94;;;;107793;1276;22639;-38
2022/06/09 03:04:20;;;;;;;10.10;9.20;;;;;;99817.95;;;;107793;1276;24192;-38
2022/06/09 03:06:47;;;;;;;10.20;9.30;;;;;;99818.36;;;;107814;1276;22579;-38
2022/06/09 03:09:15;;;;;;;10.40;9.40;;;;;;99816.25;;;;107788;1276;23887;-38
2022/06/09 03:11:42;;;;;;;10.50;9.50;;;;;;99818.12;;;;107801;1276;22552;-38
2022/06/09 03:14:10;;;;;;;9.90;9.00;;;;;;99819.77;;;;107799;1276;22688;-38
2022/06/09 03:16:37;;;;;;;10.90;9.90;;;;;;99823.44;;;;107812;1276;22757;-38
2022/06/09 03:19:05;;;;;;;10.00;9.10;;;;;;99820.06;;;;107798;1276;22646;-38
2022/06/09 03:21:33;;;;;;;10.50;9.50;;;;;;99823.79;;;;107846;1276;24379;-38
2022/06/09 03:24:00;;;;;;;11.10;10.10;;;;;;99830.83;;;;107791;1276;23034;-38
2022/06/09 03:26:28;;;;;;;11.20;10.10;;;;;;99834.95;;;;107797;1276;24227;-38
2022/06/09 03:28:55;;;;;;;11.30;10.10;;;;;;99836.86;;;;107742;1276;22570;-38
2022/06/09 03:31:23;;;;;;;12.30;11.10;;;;;;99829.34;;;;107809;1276;25373;-37
2022/06/09 03:33:50;;;;;;;11.90;10.80;;;;;;99821.27;;;;107797;1276;23095;-37
2022/06/09 03:36:18;;;;;;;12.20;11.00;;;;;;99809.80;;;;107795;1276;25435;-37
2022/06/09 03:38:45;;;;;;;12.30;11.20;;;;;;99800.33;;;;107813;1276;22567;-37
2022/06/09 03:41:12;;;;;;;12.70;11.50;;;;;;99797.73;;;;107799;1276;25405;-37
2022/06/09 03:43:40;;;;;;;11.90;10.70;;;;;;99801.56;;;;107793;1276;23187;-37
2022/06/09 03:46:08;;;;;;;12.20;11.10;;;;;;99802.77;;;;107825;1276;22529;-37
2022/06/09 03:48:35;;;;;;;11.70;10.60;;;;;;99800.82;;;;107790;1276;22730;-37
2022/06/09 03:51:02;;;;;;;12.10;11.00;;;;;;99804.94;;;;107786;1276;23271;-37
2022/06/09 03:53:30;;;;;;;12.50;11.30;;;;;;99813.64;;;;107810;1276;22582;-38
2022/06/09 03:55:57;;;;;;;12.30;11.20;;;;;;99813.84;;;;107796;1276;23133;-37
2022/06/09 03:58:25;;;;;;;12.10;10.90;;;;;;99813.45;;;;107796;1276;23059;-41
2022/06/09 04:00:53;;;;;;;11.70;10.60;;;;;;99809.86;;;;107783;1276;22717;-37
2022/06/09 04:03:21;;;;;;;11.80;10.60;;;;;;99804.56;;;;107799;1276;23120;-37
2022/06/09 04:05:48;;;;;;;12.40;11.10;;;;;;99802.52;;;;107781;1276;24910;-37
2022/06/09 04:08:15;;;;;;;12.50;11.30;;;;;;99795.32;;;;107766;1276;24433;-37
2022/06/09 04:10:43;;;;;;;12.50;11.30;;;;;;99794.10;;;;107764;1276;22819;-37
2022/06/09 04:13:11;;;;;;;13.20;12.00;;;;;;99790.99;;;;107773;1276;22637;-37
2022/06/09 04:15:38;;;;;;;12.30;11.10;;;;;;99786.44;;;;107767;1276;25388;-37
2022/06/09 04:18:06;;;;;;;13.50;12.30;;;;;;99783.03;;;;107784;1276;23902;-38
2022/06/09 04:20:34;;;;;;;12.70;11.50;;;;;;99781.00;;;;107794;1276;22542;-37
2022/06/09 04:23:01;;;;;;;13.00;11.80;;;;;;99778.97;;;;107766;1276;24206;-38
2022/06/09 04:25:28;;;;;;;12.70;11.50;;;;;;99777.36;;;;107825;1276;22541;-38
2022/06/09 04:27:56;;;;;;;13.60;12.30;;;;;;99782.63;;;;107814;1276;23887;-37
2022/06/09 04:30:24;;;;;;;13.20;12.00;;;;;;99781.80;;;;107801;1276;23209;-37
2022/06/09 04:32:51;;;;;;;13.20;12.00;;;;;;99780.10;;;;107810;1276;23380;-37
2022/06/09 04:35:19;;;;;;;12.80;11.60;;;;;;99774.39;;;;107809;1276;23895;-37
2022/06/09 04:38:01;;;;;;;12.60;11.30;;;;;;99778.95;;;;107811;1276;25388;-37
2022/06/09 04:40:29;;;;;;;14.30;12.90;;;;;;99779.94;;;;107803;1276;22760;-38
2022/06/09 04:42:56;;;;;;;12.90;11.60;;;;;;99781.89;;;;107819;1276;25469;-38
2022/06/09 04:45:23;;;;;;;12.60;11.40;;;;;;99782.20;;;;107835;1276;22538;-38
2022/06/09 04:47:51;;;;;;;13.70;12.40;;;;;;99780.60;;;;107829;1276;23871;-38
2022/06/09 04:50:19;;;;;;;13.40;12.10;;;;;;99777.48;;;;107818;1276;25389;-37
2022/06/09 04:52:46;;;;;;;13.30;11.80;;;;;;99774.13;;;;107808;1276;24223;-37
2022/06/09 04:55:13;;;;;;;12.80;11.60;;;;;;99779.92;;;;107798;1276;23214;-37
2022/06/09 04:57:41;;;;;;;12.70;11.50;;;;;;99781.83;;;;107803;1276;23082;-38
2022/06/09 05:00:08;;;;;;;14.00;12.60;;;;;;99779.94;;;;107814;1276;22549;-38
2022/06/09 05:02:36;;;;;;;13.70;12.40;;;;;;99786.80;;;;107798;1276;24224;-38
2022/06/09 05:05:03;;;;;;;13.40;12.10;;;;;;99788.25;;;;107832;1276;25204;-38
2022/06/09 05:07:31;;;;;;;13.10;11.90;;;;;;99783.64;;;;107816;1276;22755;-38
2022/06/09 05:09:58;;;;;;;13.20;11.90;;;;;;99782.70;;;;107738;1276;22535;-38
2022/06/09 05:12:26;;;;;;;14.20;12.70;;;;;;99781.11;;;;107838;1276;25847;-38
2022/06/09 05:14:53;;;;;;;13.70;12.40;;;;;;99775.23;;;;107810;1276;22635;-38
2022/06/09 05:17:20;;;;;;;14.30;12.90;;;;;;99778.20;;;;107819;1276;22565;-38
2022/06/09 05:19:48;;;;;;;14.10;12.70;;;;;;99783.06;;;;107683;1276;213443;-38
2022/06/09 05:22:15;;;;;;;14.40;13.10;;;;;;99792.13;;;;107838;1276;22541;-38
2022/06/09 05:24:43;;;;;;;13.70;12.40;;;;;;99798.95;;;;107821;1276;22652;-38
2022/06/09 05:27:11;;;;;;;13.20;12.00;;;;;;99804.71;;;;107816;1276;24473;-38
2022/06/09 05:29:39;;;;;;;13.90;12.50;;;;;;99809.52;;;;107813;1276;25313;-38
2022/06/09 05:32:06;;;;;;;13.90;12.60;;;;;;99813.58;;;;107818;1275;24375;-38
2022/06/09 05:34:33;;;;;;;14.40;13.00;;;;;;99813.11;;;;107812;1276;22563;-38
2022/06/09 05:37:01;;;;;;;13.60;12.40;;;;;;99809.35;;;;107828;1276;22717;-38
2022/06/09 05:44:59;;;;;;;13.50;12.30;;;;;;99812.64;;;;107812;1276;23343;-38
2022/06/09 05:47:27;;;;;;;14.00;12.60;;;;;;99810.05;;;;107806;1276;24394;-38
2022/06/09 05:49:54;;;;;;;13.60;12.30;;;;;;99811.71;;;;107815;1276;25300;-38
2022/06/09 05:52:22;;;;;;;13.90;12.70;;;;;;99815.15;;;;107800;1276;22555;-38
2022/06/09 05:54:51;;;;;;;14.20;12.90;;;;;;99814.73;;;;107800;1276;22552;-38
2022/06/09 05:57:18;;;;;;;14.60;13.20;;;;;;99820.46;;;;107814;1276;22542;-38
2022/06/09 05:59:45;;;;;;;14.00;12.70;;;;;;99824.50;;;;107813;1276;22531;-38
2022/06/09 06:02:13;;;;;;;13.80;12.50;;;;;;99827.01;;;;107795;1276;23853;-38
2022/06/09 06:04:40;;;;;;;13.90;12.60;;;;;;99830.80;;;;107790;1276;22499;-38
2022/06/09 06:07:08;;;;;;;14.30;13.00;;;;;;99826.27;;;;107806;1276;23166;-38
2022/06/09 06:09:35;;;;;;;14.10;12.70;;;;;;99816.25;;;;107792;1276;25316;-38
2022/06/09 06:12:03;;;;;;;13.90;12.70;;;;;;99812.39;;;;107797;1276;23733;-38
2022/06/09 06:14:30;;;;;;;15.20;13.70;;;;;;99809.77;;;;107783;1276;22803;-38
2022/06/09 06:16:58;;;;;;;14.50;13.10;;;;;;99818.55;;;;107792;1276;23205;-38
2022/06/09 06:19:25;;;;;;;14.40;13.00;;;;;;99831.68;;;;107811;1276;25418;-38
2022/06/09 06:21:53;;;;;;;14.60;13.20;;;;;;99856.60;;;;107818;1276;24344;-38
2022/06/09 06:24:20;;;;;;;14.00;12.70;;;;;;99877.69;;;;107790;1276;22537;-38
2022/06/09 06:26:48;;;;;;;14.20;12.90;;;;;;99880.01;;;;107801;1276;22890;-38
2022/06/09 06:29:15;;;;;;;14.30;12.90;;;;;;99863.46;;;;107781;1276;22955;-38
2022/06/09 06:31:42;;;;;;;14.30;12.90;;;;;;99848.56;;;;107797;1276;22540;-38
2022/06/09 06:34:10;;;;;;;13.80;12.60;;;;;;99836.67;;;;107805;1276;22538;-38
2022/06/09 06:36:37;;;;;;;14.40;13.00;;;;;;99847.70;;;;107802;1276;24245;-38
2022/06/09 06:39:05;;;;;;;14.50;13.10;;;;;;99864.16;;;;107808;1276;23053;-38
2022/06/09 06:41:33;;;;;;;13.50;12.30;;;;;;99877.54;;;;107797;1276;23234;-38
2022/06/09 06:44:00;;;;;;;14.60;13.20;;;;;;99884.08;;;;107797;1276;24279;-38
2022/06/09 06:46:28;;;;;;;14.60;13.30;;;;;;99896.91;;;;107809;1276;23214;-38
2022/06/09 06:48:55;;;;;;;14.80;13.40;;;;;;99904.61;;;;107822;1276;24281;-38
2022/06/09 06:51:23;;;;;;;15.30;13.60;;;;;;99907.23;;;;107808;1276;22743;-38
2022/06/09 06:53:50;;;;;;;14.30;13.00;;;;;;99897.27;;;;107800;1276;23847;-38
2022/06/09 06:56:18;;;;;;;14.20;12.90;;;;;;99885.38;;;;107804;1276;22562;-38
2022/06/09 06:58:45;;;;;;;15.40;13.90;;;;;;99864.38;;;;107805;1276;22542;-38
2022/06/09 07:01:13;;;;;;;14.70;13.10;;;;;;99844.35;;;;107787;1276;23740;-38
2022/06/09 07:03:40;;;;;;;14.70;13.30;;;;;;99836.50;;;;107785;1276;22559;-38
2022/06/09 07:06:08;;;;;;;14.60;13.10;;;;;;99837.13;;;;107802;1276;23151;-38
2022/06/09 07:08:36;;;;;;;14.60;13.20;;;;;;99844.20;;;;107802;1276;22546;-38
2022/06/09 07:11:04;;;;;;;15.50;14.10;;;;;;99841.40;;;;107804;1276;22535;-38
2022/06/09 07:13:31;;;;;;;14.40;13.00;;;;;;99838.30;;;;107785;1276;25981;-38
2022/06/09 07:15:59;;;;;;;15.40;13.90;;;;;;99832.10;;;;107800;1276;24401;-38
2022/06/09 07:18:26;;;;;;;14.20;12.70;;;;;;99821.14;;;;107810;1276;25406;-38
2022/06/09 07:20:53;;;;;;;14.60;13.20;;;;;;99828.23;;;;107803;1276;23885;-38
2022/06/09 07:23:22;;;;;;;14.40;13.20;;;;;;99830.98;;;;107796;1276;25387;-38
2022/06/09 07:25:49;;;;;;;14.80;13.30;;;;;;99830.39;;;;107809;1276;22539;-38
2022/06/09 07:28:16;;;;;;;14.70;13.30;;;;;;99824.27;;;;107779;1276;25367;-38
2022/06/09 07:30:44;;;;;;;15.80;14.00;;;;;;99816.04;;;;107799;1276;22965;-38
2022/06/09 07:33:12;;;;;;;14.30;13.00;;;;;;99816.35;;;;107807;1276;25464;-38
2022/06/09 07:35:39;;;;;;;13.90;12.50;;;;;;99815.74;;;;107809;1276;23168;-38
2022/06/09 07:38:07;;;;;;;14.40;12.90;;;;;;99816.69;;;;107797;1276;24461;-38
2022/06/09 07:40:34;;;;;;;13.60;12.30;;;;;;99815.42;;;;107797;1276;25373;-38
2022/06/09 07:43:03;;;;;;;14.10;12.70;;;;;;99816.65;;;;107806;1276;22566;-38
2022/06/09 07:45:31;;;;;;;14.50;13.10;;;;;;99818.28;;;;107816;1276;23028;-38
2022/06/09 07:47:58;;;;;;;14.00;12.70;;;;;;99821.40;;;;107799;1276;24184;-38
2022/06/09 07:50:26;;;;;;;14.70;13.30;;;;;;99823.61;;;;107814;1276;23074;-38
2022/06/09 07:52:53;;;;;;;14.50;13.10;;;;;;99823.70;;;;107798;1276;23068;-38
2022/06/09 07:55:22;;;;;;;15.00;13.70;;;;;;99821.27;;;;107800;1276;22561;-38
2022/06/09 07:57:50;;;;;;;15.50;14.00;;;;;;99822.66;;;;107791;1276;25222;-38
2022/06/09 08:00:17;;;;;;;15.90;14.40;;;;;;99818.13;;;;107797;1276;22740;-38
2022/06/09 08:02:44;;;;;;;16.50;15.00;;;;;;99821.36;;;;107800;1276;22571;-38
2022/06/09 08:05:12;;;;;;;15.90;14.30;;;;;;99819.62;;;;107808;1276;22693;-38
2022/06/09 08:07:39;;;;;;;15.50;13.80;;;;;;99821.99;;;;107732;1276;25439;-37
2022/06/09 08:10:06;;;;;;;16.00;14.30;;;;;;99823.36;;;;107731;1275;22555;-37
2022/06/09 08:12:34;;;;;;;16.10;14.50;;;;;;99824.63;;;;107750;1276;22740;-36
2022/06/09 08:15:02;;;;;;;15.70;14.10;;;;;;99821.95;;;;107790;1275;23004;-37
2022/06/09 08:17:29;;;;;;;17.30;15.60;;;;;;99821.84;;;;107756;1276;25383;-38
2022/06/09 08:19:57;;;;;;;17.00;15.30;;;;;;99825.41;;;;107772;1276;22561;-37
2022/06/09 08:22:24;;;;;;;17.50;15.70;;;;;;99826.52;;;;107791;1276;25332;-37
2022/06/09 08:24:51;;;;;;;17.80;15.90;;;;;;99824.52;;;;107777;1276;23335;-38
2022/06/09 08:27:19;;;;;;;16.90;15.10;;;;;;99824.42;;;;107680;1276;23148;-37
2022/06/09 08:29:46;;;;;;;17.80;16.00;;;;;;99819.31;;;;107717;1276;24261;-37
2022/06/09 08:32:14;;;;;;;16.50;14.90;;;;;;99818.23;;;;107694;1276;23048;-37
2022/06/09 08:34:41;;;;;;;18.00;16.10;;;;;;99817.65;;;;107688;1276;23144;-37
2022/06/09 08:37:08;;;;;;;16.40;14.80;;;;;;99816.45;;;;107701;1276;22561;-37
2022/06/09 08:39:35;;;;;;;15.60;14.20;;;;;;99816.25;;;;107683;1276;25836;-37
2022/06/09 08:42:03;;;;;;;17.50;15.80;;;;;;99819.30;;;;107739;1276;24180;-37
2022/06/09 08:44:31;;;;;;;16.60;15.10;;;;;;99827.59;;;;107710;1276;22558;-37
2022/06/09 08:46:58;;;;;;;17.00;15.40;;;;;;99832.41;;;;107705;1276;22558;-38
2022/06/09 08:49:26;;;;;;;18.20;16.20;;;;;;99840.52;;;;107720;1276;22695;-37
2022/06/09 08:51:53;;;;;;;16.80;15.30;;;;;;99843.82;;;;107719;1276;23001;-38
2022/06/09 08:54:20;;;;;;;15.70;14.30;;;;;;99847.77;;;;107724;1276;22530;-38
2022/06/09 08:56:48;;;;;;;16.50;14.90;;;;;;99853.96;;;;107695;1276;23035;-36
2022/06/09 08:59:15;;;;;;;16.80;15.10;;;;;;99855.92;;;;107724;1274;23103;-36
2022/06/09 09:01:43;;;;;;;17.00;15.50;;;;;;99864.55;;;;107817;1276;23185;-36
2022/06/09 09:04:10;;;;;;;19.50;17.60;;;;;;99869.72;;;;107816;1274;22945;-38
2022/06/09 09:06:37;;;;;;;18.50;16.80;;;;;;99873.85;;;;107790;1275;22858;-38
2022/06/09 09:09:05;;;;;;;17.90;16.30;;;;;;99875.34;;;;107812;1275;23111;-37
2022/06/09 09:11:32;;;;;;;18.30;16.70;;;;;;99880.77;;;;107795;1275;26017;-37
2022/06/09 09:14:00;;;;;;;18.60;16.80;;;;;;99879.05;;;;107830;1275;22519;-37
2022/06/09 09:16:27;;;;;;;19.70;17.90;;;;;;99879.50;;;;107788;1276;25415;-37
2022/06/09 09:18:55;;;;;;;21.90;19.90;;;;;;99879.96;;;;107788;1276;23872;-37
2022/06/09 09:21:22;;;;;;;20.80;18.80;;;;;;99879.58;;;;107771;1276;24248;-37
2022/06/09 09:23:49;;;;;;;19.10;17.20;;;;;;99877.53;;;;107780;1276;22714;-37
2022/06/09 09:26:17;;;;;;;21.00;18.90;;;;;;99870.00;;;;107794;1276;22560;-37
2022/06/09 09:28:44;;;;;;;17.20;15.70;;;;;;99871.05;;;;107710;1276;22489;-37
2022/06/09 09:31:11;;;;;;;18.40;16.60;;;;;;99865.02;;;;107753;1276;22542;-38
2022/06/09 09:33:39;;;;;;;20.40;18.40;;;;;;99863.00;;;;107745;1276;22535;-38
2022/06/09 09:36:06;;;;;;;18.20;16.50;;;;;;99867.82;;;;107711;1276;22562;-38
2022/06/09 09:38:33;;;;;;;18.50;16.70;;;;;;99867.44;;;;107755;1276;22530;-38
2022/06/09 09:41:01;;;;;;;18.10;16.40;;;;;;99863.30;;;;107777;1276;22528;-38
2022/06/09 09:43:28;;;;;;;18.80;17.10;;;;;;99863.46;;;;107783;1276;23920;-38
2022/06/09 09:45:56;;;;;;;19.60;17.70;;;;;;99864.54;;;;107781;1276;22987;-38
2022/06/09 09:48:24;;;;;;;19.50;17.60;;;;;;99861.98;;;;107685;1276;24448;-38
2022/06/09 09:50:51;;;;;;;19.10;17.20;;;;;;99858.50;;;;107691;1276;22532;-39
2022/06/09 09:53:18;;;;;;;19.20;17.40;;;;;;99851.85;;;;107709;1276;22973;-39
2022/06/09 09:55:46;;;;;;;19.10;17.30;;;;;;99851.59;;;;107715;1276;24283;-38
2022/06/09 09:58:13;;;;;;;18.10;16.30;;;;;;99844.09;;;;107733;1276;22714;-38
2022/06/09 10:00:40;;;;;;;18.50;16.80;;;;;;99840.23;;;;107710;1276;23098;-38
2022/06/09 10:08:39;;;;;;;20.40;18.70;;;;;;99830.54;;;;107692;1276;22532;-38
2022/06/09 10:11:53;;;;;;;19.20;17.40;;;;;;99827.29;;;;107705;1276;22627;-38
2022/06/09 10:13:54;;;;;;;19.00;17.30;;;;;;99828.26;;;;107710;1276;22647;-38
2022/06/09 10:16:21;;;;;;;19.30;17.60;;;;;;99829.80;;;;107717;1276;22531;-38
2022/06/09 10:18:49;;;;;;;19.30;17.60;;;;;;99831.89;;;;107716;1276;22679;-37
2022/06/09 10:21:16;;;;;;;17.70;16.10;;;;;;99828.35;;;;107720;1276;22651;-38
2022/06/09 10:23:43;;;;;;;17.70;16.20;;;;;;99828.65;;;;107702;1276;22502;-38
2022/06/09 10:26:11;;;;;;;17.80;16.30;;;;;;99827.55;;;;107707;1276;24242;-37
2022/06/09 10:28:39;;;;;;;18.30;16.70;;;;;;99830.45;;;;107715;1276;25094;-38
2022/06/09 10:31:07;;;;;;;18.10;16.50;;;;;;99827.73;;;;107717;1276;22715;-37
2022/06/09 10:33:35;;;;;;;18.20;16.50;;;;;;99824.57;;;;107734;1276;22542;-37
2022/06/09 10:36:02;;;;;;;17.60;16.10;;;;;;99823.62;;;;107697;1276;22844;-37
2022/06/09 10:38:29;;;;;;;17.10;15.70;;;;;;99820.02;;;;107761;1276;23875;-37
2022/06/09 10:40:57;;;;;;;16.70;15.30;;;;;;99818.61;;;;107792;1276;24282;-36
2022/06/09 10:43:25;;;;;;;17.20;15.70;;;;;;99820.16;;;;107772;1276;22544;-37
2022/06/09 10:45:52;;;;;;;16.70;15.30;;;;;;99820.30;;;;107791;1276;22692;-39
2022/06/09 10:56:36;;;;;;;16.10;14.60;;;;;;99809.34;;;;107793;1276;22542;-36
2022/06/09 10:59:03;;;;;;;15.70;14.50;;;;;;99803.39;;;;107754;1276;22577;-36
2022/06/09 11:01:30;;;;;;;16.20;14.90;;;;;;99809.00;;;;107799;1276;22536;-37
2022/06/09 11:03:58;;;;;;;16.30;14.80;;;;;;99804.23;;;;107769;1276;23858;-36
2022/06/09 11:06:25;;;;;;;16.20;14.80;;;;;;99802.78;;;;107780;1276;22538;-36
2022/06/09 11:08:52;;;;;;;16.30;14.90;;;;;;99800.64;;;;107785;1276;22561;-37
2022/06/09 11:11:20;;;;;;;16.50;15.00;;;;;;99804.26;;;;107788;1276;23206;-36
2022/06/09 11:13:47;;;;;;;16.60;15.20;;;;;;99804.16;;;;107780;1276;24208;-36
2022/06/09 11:16:14;;;;;;;16.00;14.60;;;;;;99804.73;;;;107782;1276;22538;-36
2022/06/09 11:18:41;;;;;;;15.80;14.40;;;;;;99799.50;;;;107794;1276;22529;-36
2022/06/09 11:21:09;;;;;;;15.00;13.70;;;;;;99797.86;;;;107765;1276;25652;-36
2022/06/09 11:23:36;;;;;;;16.50;15.00;;;;;;99795.95;;;;107774;1276;24246;-36
2022/06/09 11:26:03;;;;;;;15.80;14.50;;;;;;99791.43;;;;107790;1276;23193;-36
2022/06/09 11:28:31;;;;;;;15.50;14.10;;;;;;99791.50;;;;107798;1276;25935;-36
2022/06/09 11:30:58;;;;;;;15.40;14.10;;;;;;99788.43;;;;107760;1276;24078;-36
2022/06/09 11:33:26;;;;;;;15.70;14.40;;;;;;99787.17;;;;107772;1276;22577;-36
2022/06/09 11:35:53;;;;;;;15.60;14.30;;;;;;99787.25;;;;107802;1276;22549;-37
2022/06/09 11:38:20;;;;;;;15.60;14.30;;;;;;99782.85;;;;107745;1276;24216;-36
2022/06/09 11:40:48;;;;;;;14.10;12.90;;;;;;99778.05;;;;107704;1276;22548;-36
2022/06/09 11:43:15;;;;;;;14.20;13.00;;;;;;99772.05;;;;107693;1276;25431;-36
2022/06/09 11:45:42;;;;;;;14.70;13.50;;;;;;99771.30;;;;107686;1276;23071;-36
2022/06/09 11:48:10;;;;;;;14.20;12.90;;;;;;99769.25;;;;107709;1276;22583;-36
2022/06/09 11:50:37;;;;;;;14.90;13.60;;;;;;99764.16;;;;107715;1276;22967;-37
2022/06/09 11:53:05;;;;;;;14.80;13.50;;;;;;99757.27;;;;107721;1274;24027;-37
2022/06/09 11:58:14;;;;;;;13.80;12.60;;;;;;99749.25;;;;107804;1274;23322;-37
2022/06/09 12:00:41;;;;;;;13.50;12.30;;;;;;99752.30;;;;107817;1274;22600;-37
2022/06/09 12:03:09;;;;;;;14.60;13.20;;;;;;99744.33;;;;107749;1276;23921;-38
2022/06/09 12:05:36;;;;;;;13.40;12.20;;;;;;99736.28;;;;107737;1276;24647;-37
2022/06/09 12:08:04;;;;;;;13.40;12.20;;;;;;99732.79;;;;107770;1276;22526;-36
2022/06/09 12:10:33;;;;;;;13.30;12.10;;;;;;99722.91;;;;107709;1276;23293;-37
2022/06/09 12:13:00;;;;;;;13.00;11.90;;;;;;99721.80;;;;107717;1275;24233;-37
2022/06/09 12:15:28;;;;;;;14.10;12.80;;;;;;99722.23;;;;107758;1277;22778;-37
2022/06/09 12:17:56;;;;;;;13.90;12.60;;;;;;99718.85;;;;107756;1275;24225;-37
2022/06/09 12:20:24;;;;;;;13.20;12.10;;;;;;99718.25;;;;107771;1274;23956;-37
2022/06/09 12:22:51;;;;;;;12.90;11.70;;;;;;99715.67;;;;107783;1277;22530;-37
2022/06/09 12:25:21;;;;;;;13.20;12.00;;;;;;99713.46;;;;107804;1274;25955;-36
2022/06/09 12:27:48;;;;;;;12.60;11.50;;;;;;99709.58;;;;107781;1276;25289;-36
2022/06/09 12:30:16;;;;;;;12.40;11.30;;;;;;99707.22;;;;107751;1276;23066;-36
2022/06/09 12:32:44;;;;;;;11.80;10.70;;;;;;99702.73;;;;107744;1276;23213;-37
2022/06/09 12:35:11;;;;;;;12.30;11.20;;;;;;99705.70;;;;107794;1276;22563;-36
2022/06/09 12:37:39;;;;;;;12.60;11.40;;;;;;99709.91;;;;107785;1276;23032;-36
2022/06/09 12:40:06;;;;;;;13.20;11.70;;;;;;99708.73;;;;107782;1276;25424;-36
2022/06/09 12:42:34;;;;;;;12.10;10.90;;;;;;99706.10;;;;107768;1276;23046;-36
2022/06/09 12:45:01;;;;;;;11.90;10.70;;;;;;99705.05;;;;107752;1276;24195;-36
2022/06/09 12:47:29;;;;;;;12.00;10.90;;;;;;99709.36;;;;107773;1276;25396;-35
2022/06/09 12:49:56;;;;;;;12.00;10.90;;;;;;99714.54;;;;107777;1276;22519;-36
2022/06/09 12:52:24;;;;;;;12.10;11.00;;;;;;99711.19;;;;107776;1276;23050;-37
2022/06/09 12:54:51;;;;;;;12.00;10.90;;;;;;99710.36;;;;107757;1276;22626;-36
2022/06/09 12:57:19;;;;;;;12.10;11.00;;;;;;99718.14;;;;107796;1276;23079;-36
2022/06/09 12:59:47;;;;;;;11.90;10.90;;;;;;99722.09;;;;107783;1276;22634;-36
2022/06/09 13:02:17;;;;;;;11.30;10.30;;;;;;99725.72;;;;107796;1274;23858;-36